Time;durP1;ratioP1;P1;durP2;ratioP2;P2;SDS_P1;SDS_P2;PMS_P1;PMS_P2;Temp;Humidity;BMP_temperature;BMP_pressure;BME280_temperature;BME280_humidity;BME280_pressure;Samples;Min_cycle;Max_cycle;Signal;HPM_P1;HPM_P2
2021/01/19 00:02:00;;;;;;;14.70;4.43;;;3.50;99.90;;;;;;5012670;28;20026;-57
2021/01/19 00:04:26;;;;;;;10.98;3.40;;;3.50;99.90;;;;;;5012486;28;20030;-58
2021/01/19 00:06:52;;;;;;;5.95;3.25;;;3.50;99.90;;;;;;5012348;28;20030;-59
2021/01/19 00:09:18;;;;;;;6.15;2.38;;;3.50;99.90;;;;;;5012443;28;20105;-59
2021/01/19 00:11:44;;;;;;;10.40;4.25;;;3.50;99.90;;;;;;5012259;28;20053;-57
2021/01/19 00:14:09;;;;;;;7.45;2.67;;;3.50;99.90;;;;;;5012311;28;20057;-57
2021/01/19 00:16:35;;;;;;;8.68;3.35;;;3.50;99.90;;;;;;5012229;28;20038;-57
2021/01/19 00:19:01;;;;;;;8.63;2.70;;;3.50;99.90;;;;;;5012410;28;20061;-58
2021/01/19 00:21:27;;;;;;;6.00;3.10;;;3.50;99.90;;;;;;5011865;28;20041;-59
2021/01/19 00:23:53;;;;;;;5.60;2.53;;;3.50;99.90;;;;;;5012187;28;20068;-58
2021/01/19 00:26:19;;;;;;;6.60;2.70;;;3.60;99.90;;;;;;5012024;28;20052;-58
2021/01/19 00:28:45;;;;;;;5.13;2.60;;;3.60;99.90;;;;;;5012291;28;20038;-57
2021/01/19 00:31:11;;;;;;;7.57;3.47;;;3.60;99.90;;;;;;5012461;28;20076;-58
2021/01/19 00:33:37;;;;;;;5.57;2.78;;;3.60;99.90;;;;;;5012237;28;20038;-58
2021/01/19 00:36:03;;;;;;;7.40;2.97;;;3.50;99.90;;;;;;5016187;28;20045;-58
2021/01/19 00:38:29;;;;;;;9.27;3.10;;;3.50;99.90;;;;;;5016039;28;20069;-58
2021/01/19 00:40:55;;;;;;;6.53;3.10;;;3.60;99.90;;;;;;5015599;28;20065;-57
2021/01/19 00:43:21;;;;;;;6.60;2.90;;;3.50;99.90;;;;;;5015624;28;20037;-56
2021/01/19 00:45:47;;;;;;;9.77;3.22;;;3.60;99.90;;;;;;5015722;28;20033;-58
2021/01/19 00:48:13;;;;;;;5.57;2.47;;;3.50;99.90;;;;;;5014519;28;20092;-57
2021/01/19 00:50:39;;;;;;;7.10;3.40;;;3.50;99.90;;;;;;5015488;28;20030;-57
2021/01/19 00:53:05;;;;;;;13.27;3.58;;;3.50;99.90;;;;;;5015951;28;20359;-57
2021/01/19 00:55:31;;;;;;;8.93;3.20;;;3.50;99.90;;;;;;5015384;28;20033;-58
2021/01/19 00:57:57;;;;;;;9.50;3.95;;;3.50;99.90;;;;;;5015508;28;20076;-56
2021/01/19 01:00:23;;;;;;;8.88;3.20;;;3.50;99.90;;;;;;5015711;28;20025;-57
2021/01/19 01:02:49;;;;;;;8.18;3.13;;;3.40;99.90;;;;;;5015790;28;20037;-57
2021/01/19 01:05:15;;;;;;;7.28;3.22;;;3.50;99.90;;;;;;5015419;28;20030;-56
2021/01/19 01:07:42;;;;;;;12.45;3.85;;;3.50;99.90;;;;;;5015331;28;20042;-56
2021/01/19 01:10:15;;;;;;;6.75;2.83;;;3.40;99.90;;;;;;5015362;28;20040;-57
2021/01/19 01:12:42;;;;;;;8.00;3.50;;;3.40;99.90;;;;;;5015414;28;20038;-59
2021/01/19 01:15:11;;;;;;;13.68;4.13;;;3.40;99.90;;;;;;5015533;28;20033;-58
2021/01/19 01:17:39;;;;;;;7.68;2.83;;;3.40;99.90;;;;;;5015019;28;20041;-57
2021/01/19 01:20:11;;;;;;;11.45;3.45;;;3.30;99.90;;;;;;5015443;28;20109;-58
2021/01/19 01:22:47;;;;;;;6.35;3.35;;;3.30;99.90;;;;;;5013805;28;20038;-57
2021/01/19 01:25:15;;;;;;;8.05;3.65;;;3.40;99.90;;;;;;5015093;28;20037;-58
2021/01/19 01:27:43;;;;;;;11.35;3.92;;;3.40;99.90;;;;;;5014804;28;20077;-59
2021/01/19 01:30:12;;;;;;;9.68;3.35;;;3.40;99.90;;;;;;5015020;28;20034;-57
2021/01/19 01:32:48;;;;;;;5.45;2.63;;;3.40;99.90;;;;;;5014717;28;20041;-58
2021/01/19 01:35:14;;;;;;;8.55;3.08;;;3.40;99.90;;;;;;5015202;28;20095;-58
2021/01/19 01:37:49;;;;;;;10.05;3.75;;;3.50;99.90;;;;;;5014564;28;20044;-58
2021/01/19 01:40:34;;;;;;;9.27;3.30;;;3.50;99.90;;;;;;5014676;28;20056;-56
2021/01/19 01:43:12;;;;;;;6.00;3.00;;;3.50;99.90;;;;;;5013861;28;20066;-58
2021/01/19 01:45:38;;;;;;;7.90;3.55;;;3.50;99.90;;;;;;5014213;28;20092;-58
2021/01/19 01:48:07;;;;;;;9.13;2.42;;;3.50;99.90;;;;;;5014674;28;20061;-58
2021/01/19 01:50:33;;;;;;;12.60;2.88;;;3.50;99.90;;;;;;5013606;28;20038;-58
2021/01/19 01:52:59;;;;;;;7.40;3.95;;;3.50;99.90;;;;;;5013644;28;20033;-58
2021/01/19 01:55:25;;;;;;;8.88;3.53;;;3.50;99.90;;;;;;5014348;28;20087;-57
2021/01/19 01:57:51;;;;;;;4.45;2.50;;;3.50;99.90;;;;;;5014463;28;20045;-57
2021/01/19 02:00:19;;;;;;;7.63;2.95;;;3.60;99.90;;;;;;5014671;28;20068;-58
2021/01/19 02:02:49;;;;;;;9.52;3.75;;;3.60;99.90;;;;;;5014278;28;20042;-58
2021/01/19 02:05:15;;;;;;;9.05;4.32;;;3.60;99.90;;;;;;5014295;28;20073;-59
2021/01/19 02:08:23;;;;;;;7.85;3.05;;;3.60;99.90;;;;;;5014132;28;20037;-58
2021/01/19 02:11:04;;;;;;;8.55;3.42;;;3.60;99.90;;;;;;5013547;28;20057;-58
2021/01/19 02:13:52;;;;;;;12.60;3.75;;;3.60;99.90;;;;;;5014172;28;20129;-57
2021/01/19 02:17:03;;;;;;;5.07;2.70;;;3.50;99.90;;;;;;5014303;28;20114;-58
2021/01/19 02:19:46;;;;;;;3.95;2.17;;;3.60;99.90;;;;;;5014025;28;20030;-58
2021/01/19 02:22:37;;;;;;;4.15;2.40;;;3.60;99.90;;;;;;5014271;28;20048;-58
2021/01/19 02:25:33;;;;;;;6.93;2.83;;;3.50;99.90;;;;;;5013017;28;20074;-58
2021/01/19 02:28:21;;;;;;;5.00;2.47;;;3.50;99.90;;;;;;5013874;28;20085;-58
2021/01/19 02:31:59;;;;;;;8.40;3.47;;;3.50;99.90;;;;;;5013937;28;20029;-59
2021/01/19 02:34:57;;;;;;;7.60;2.75;;;3.50;99.90;;;;;;4991812;28;20042;-56
2021/01/19 02:37:30;;;;;;;7.15;3.03;;;3.60;99.90;;;;;;4973360;28;20147;-57
2021/01/19 02:40:08;;;;;;;5.40;1.75;;;3.50;99.90;;;;;;4991623;28;20042;-58
2021/01/19 02:42:54;;;;;;;8.75;2.80;;;3.60;99.90;;;;;;4991571;28;20034;-58
2021/01/19 02:45:21;;;;;;;8.27;2.65;;;3.60;99.90;;;;;;4991600;28;20042;-57
2021/01/19 02:47:46;;;;;;;8.63;3.40;;;3.60;99.90;;;;;;4975327;28;20034;-58
2021/01/19 02:50:13;;;;;;;7.47;2.83;;;3.60;99.90;;;;;;4991581;28;20072;-58
2021/01/19 02:52:41;;;;;;;9.10;4.05;;;3.60;99.90;;;;;;4991327;28;20053;-58
2021/01/19 02:55:08;;;;;;;4.18;1.85;;;3.60;99.90;;;;;;4975513;28;20117;-59
2021/01/19 02:58:00;;;;;;;8.13;2.65;;;3.60;99.90;;;;;;4990315;28;20030;-57
2021/01/19 03:00:51;;;;;;;9.60;2.78;;;3.60;99.90;;;;;;4991332;28;20053;-56
2021/01/19 03:03:19;;;;;;;4.93;2.40;;;3.60;99.90;;;;;;4991347;28;20085;-58
2021/01/19 03:05:46;;;;;;;7.15;2.50;;;3.60;99.90;;;;;;5003873;28;20069;-58
2021/01/19 03:08:13;;;;;;;3.85;2.45;;;3.60;99.90;;;;;;5012253;28;20045;-58
2021/01/19 03:10:42;;;;;;;12.07;3.05;;;3.70;99.90;;;;;;5011790;28;20029;-58
2021/01/19 03:13:15;;;;;;;4.13;1.70;;;3.60;99.90;;;;;;5011854;28;20037;-55
2021/01/19 03:15:41;;;;;;;4.05;2.33;;;3.60;99.90;;;;;;5012806;28;20065;-58
2021/01/19 03:18:09;;;;;;;5.18;2.28;;;3.60;99.90;;;;;;5012891;28;20030;-58
2021/01/19 03:20:35;;;;;;;3.63;2.00;;;3.60;99.90;;;;;;5012822;28;20044;-58
2021/01/19 03:23:02;;;;;;;7.15;3.20;;;3.60;99.90;;;;;;5013023;28;20042;-58
2021/01/19 03:25:28;;;;;;;7.00;1.75;;;3.60;99.90;;;;;;5013076;28;20037;-58
2021/01/19 03:27:54;;;;;;;8.38;2.72;;;3.60;99.90;;;;;;5013056;28;20048;-58
2021/01/19 03:30:20;;;;;;;5.55;2.05;;;3.60;99.90;;;;;;5012845;28;20069;-57
2021/01/19 03:32:46;;;;;;;4.88;2.50;;;3.60;99.90;;;;;;5012638;28;20038;-58
2021/01/19 03:35:13;;;;;;;5.68;2.47;;;3.50;99.90;;;;;;5012809;28;20041;-58
2021/01/19 03:37:38;;;;;;;5.55;2.70;;;3.60;99.90;;;;;;5012535;28;20030;-58
2021/01/19 03:40:06;;;;;;;4.50;2.40;;;3.60;99.90;;;;;;5012469;28;20052;-59
2021/01/19 03:42:32;;;;;;;10.32;3.17;;;3.60;99.90;;;;;;5012563;28;20038;-56
2021/01/19 03:44:58;;;;;;;6.88;2.60;;;3.50;99.90;;;;;;5012547;28;20037;-57
2021/01/19 03:47:24;;;;;;;3.40;1.95;;;3.50;99.90;;;;;;5012651;28;20052;-55
2021/01/19 03:49:50;;;;;;;7.05;2.22;;;3.50;99.90;;;;;;5012780;28;20104;-58
2021/01/19 03:52:16;;;;;;;7.82;2.97;;;3.50;99.90;;;;;;5012492;28;20109;-57
2021/01/19 03:54:42;;;;;;;7.68;3.08;;;3.50;99.90;;;;;;5012408;28;20062;-58
2021/01/19 03:57:08;;;;;;;6.60;2.80;;;3.50;99.90;;;;;;5012297;28;20037;-58
2021/01/19 03:59:34;;;;;;;7.38;2.70;;;3.50;99.90;;;;;;5012359;28;20049;-59
2021/01/19 04:01:59;;;;;;;4.05;2.22;;;3.50;99.90;;;;;;5012306;28;20038;-58
2021/01/19 04:04:25;;;;;;;5.40;1.90;;;3.50;99.90;;;;;;5012702;28;20114;-58
2021/01/19 04:06:51;;;;;;;6.50;2.63;;;3.50;99.90;;;;;;5012235;28;20033;-59
2021/01/19 04:09:17;;;;;;;4.18;1.80;;;3.50;99.90;;;;;;5012175;28;20034;-58
2021/01/19 04:11:43;;;;;;;7.35;2.05;;;3.50;99.90;;;;;;5012144;28;20101;-58
2021/01/19 04:14:09;;;;;;;5.97;2.40;;;3.40;99.90;;;;;;5012260;28;20084;-59
2021/01/19 04:16:35;;;;;;;10.57;2.42;;;3.40;99.90;;;;;;5012099;28;20061;-57
2021/01/19 04:19:01;;;;;;;8.15;3.13;;;3.40;99.90;;;;;;5012230;28;20135;-58
2021/01/19 04:21:27;;;;;;;9.05;2.03;;;3.40;99.90;;;;;;5012476;28;20034;-58
2021/01/19 04:23:53;;;;;;;8.82;2.45;;;3.40;99.90;;;;;;5012045;28;20080;-58
2021/01/19 04:26:19;;;;;;;8.45;2.92;;;3.40;99.90;;;;;;5012165;28;20026;-58
2021/01/19 04:28:45;;;;;;;5.70;2.63;;;3.40;99.90;;;;;;5012199;28;20033;-59
2021/01/19 04:31:11;;;;;;;7.07;2.20;;;3.40;99.90;;;;;;5012002;28;20056;-58
2021/01/19 04:33:37;;;;;;;7.53;3.05;;;3.40;99.90;;;;;;5012036;28;20133;-58
2021/01/19 04:36:03;;;;;;;6.25;2.63;;;3.40;99.90;;;;;;5012012;28;20038;-57
2021/01/19 04:38:29;;;;;;;8.93;2.83;;;3.40;99.90;;;;;;5011978;28;20034;-57
2021/01/19 04:40:56;;;;;;;9.63;2.90;;;3.40;99.90;;;;;;5011507;28;20050;-58
2021/01/19 04:43:23;;;;;;;3.75;2.13;;;3.30;99.90;;;;;;5012198;28;20037;-57
2021/01/19 04:45:50;;;;;;;7.20;2.70;;;3.30;99.90;;;;;;5010377;28;20072;-54
2021/01/19 04:48:19;;;;;;;4.57;2.10;;;3.30;99.90;;;;;;5011284;28;20030;-57
2021/01/19 04:50:46;;;;;;;6.78;2.70;;;3.30;99.90;;;;;;5011728;28;20034;-57
2021/01/19 04:53:15;;;;;;;5.80;2.33;;;3.20;99.90;;;;;;5002385;28;20034;-54
2021/01/19 04:55:53;;;;;;;6.95;2.72;;;3.30;99.90;;;;;;4990878;28;20064;-57
2021/01/19 04:58:22;;;;;;;5.70;2.42;;;3.30;99.90;;;;;;4992139;28;20054;-58
2021/01/19 05:01:08;;;;;;;5.35;1.95;;;3.30;99.90;;;;;;5011442;28;20045;-57
2021/01/19 05:04:25;;;;;;;5.82;2.67;;;3.30;99.90;;;;;;5012033;28;20066;-59
2021/01/19 05:07:25;;;;;;;6.82;2.42;;;3.30;99.90;;;;;;5010657;28;20034;-59
2021/01/19 05:10:13;;;;;;;7.63;2.35;;;3.20;99.90;;;;;;5011793;28;20030;-57
2021/01/19 05:12:45;;;;;;;4.43;2.28;;;3.20;99.90;;;;;;5011606;28;20025;-58
2021/01/19 05:15:14;;;;;;;3.83;1.90;;;3.20;99.90;;;;;;5011794;28;20041;-57
2021/01/19 05:17:42;;;;;;;5.47;2.80;;;3.20;99.90;;;;;;5010256;28;20041;-58
2021/01/19 05:20:11;;;;;;;7.65;2.60;;;3.20;99.90;;;;;;5012746;28;20037;-58
2021/01/19 05:22:37;;;;;;;11.82;2.85;;;3.10;99.90;;;;;;5014997;28;20034;-57
2021/01/19 05:25:06;;;;;;;5.53;2.60;;;3.10;99.90;;;;;;4998472;28;20045;-59
2021/01/19 05:27:32;;;;;;;10.02;2.63;;;3.10;99.90;;;;;;4995656;28;20030;-59
2021/01/19 05:30:06;;;;;;;6.47;3.00;;;3.10;99.90;;;;;;4994113;28;20108;-59
2021/01/19 05:32:49;;;;;;;3.97;1.90;;;3.10;99.90;;;;;;4995305;28;20034;-60
2021/01/19 05:35:20;;;;;;;6.00;2.13;;;3.10;99.90;;;;;;4995584;28;20038;-59
2021/01/19 05:37:56;;;;;;;4.60;2.77;;;3.00;99.90;;;;;;4995123;28;20088;-59
2021/01/19 05:40:24;;;;;;;14.73;3.90;;;3.00;99.90;;;;;;4995044;28;20121;-57
2021/01/19 05:42:50;;;;;;;6.28;2.03;;;3.00;99.90;;;;;;4995072;28;20134;-60
2021/01/19 05:45:16;;;;;;;4.90;2.40;;;3.00;99.90;;;;;;4995176;28;20038;-60
2021/01/19 05:47:43;;;;;;;6.40;2.58;;;3.00;99.90;;;;;;4994926;28;20113;-58
2021/01/19 05:50:11;;;;;;;6.53;2.00;;;3.00;99.90;;;;;;4994112;28;20041;-58
2021/01/19 05:52:37;;;;;;;7.65;2.20;;;3.00;99.90;;;;;;4995141;28;20038;-60
2021/01/19 05:55:04;;;;;;;5.03;1.90;;;2.90;99.90;;;;;;5009607;28;20080;-56
2021/01/19 05:57:30;;;;;;;10.35;2.58;;;3.00;99.90;;;;;;5012981;28;20058;-57
2021/01/19 05:59:58;;;;;;;6.18;2.63;;;2.90;99.90;;;;;;5013088;28;20068;-57
2021/01/19 06:02:42;;;;;;;5.18;1.98;;;2.90;99.90;;;;;;5014309;28;20121;-57
2021/01/19 06:05:17;;;;;;;5.47;2.33;;;2.90;99.90;;;;;;5014146;28;20044;-56
2021/01/19 06:07:46;;;;;;;5.22;2.33;;;2.90;99.90;;;;;;5013995;28;20034;-59
2021/01/19 06:10:19;;;;;;;5.32;2.42;;;2.90;99.90;;;;;;5014024;28;20038;-57
2021/01/19 06:12:46;;;;;;;7.20;2.63;;;2.90;99.90;;;;;;5014086;28;20037;-58
2021/01/19 06:15:12;;;;;;;5.03;2.40;;;2.90;99.90;;;;;;5012896;28;20041;-58
2021/01/19 06:17:38;;;;;;;5.28;2.03;;;2.90;99.90;;;;;;5014199;28;20084;-57
2021/01/19 06:20:07;;;;;;;2.97;1.67;;;2.90;99.90;;;;;;5013954;28;20049;-57
2021/01/19 06:22:33;;;;;;;3.95;2.83;;;2.90;99.90;;;;;;5014212;28;20069;-58
2021/01/19 06:25:04;;;;;;;6.88;2.95;;;2.90;99.90;;;;;;4997926;28;20031;-58
2021/01/19 06:27:33;;;;;;;3.00;1.55;;;2.90;99.90;;;;;;4994259;28;20045;-58
2021/01/19 06:29:59;;;;;;;9.75;2.30;;;2.90;99.90;;;;;;4994220;28;20037;-58
2021/01/19 06:32:34;;;;;;;4.50;1.80;;;2.90;99.90;;;;;;4992929;28;20042;-57
2021/01/19 06:35:19;;;;;;;7.43;2.47;;;2.90;99.90;;;;;;4993881;28;20040;-58
2021/01/19 06:37:50;;;;;;;5.05;1.35;;;2.90;99.90;;;;;;4993556;28;20125;-58
2021/01/19 06:40:20;;;;;;;6.07;2.55;;;2.90;99.90;;;;;;4993213;28;20050;-59
2021/01/19 06:43:04;;;;;;;4.13;2.67;;;2.80;99.90;;;;;;4993708;28;20043;-58
2021/01/19 06:45:32;;;;;;;5.75;1.85;;;2.80;99.90;;;;;;4992722;28;20054;-58
2021/01/19 06:48:02;;;;;;;12.88;2.38;;;2.80;99.90;;;;;;4993876;28;20034;-58
2021/01/19 06:50:34;;;;;;;4.57;1.87;;;2.80;99.90;;;;;;4992829;28;20109;-57
2021/01/19 06:53:23;;;;;;;;;;;2.70;99.90;;;;;;4993812;28;20093;-59
2021/01/19 06:55:58;;;;;;;7.82;1.92;;;2.80;99.90;;;;;;4973156;28;19918;-59
2021/01/19 06:58:45;;;;;;;6.75;2.10;;;2.70;99.90;;;;;;4974437;28;20090;-58
2021/01/19 07:01:28;;;;;;;7.53;2.42;;;2.70;99.90;;;;;;4988485;28;20031;-59
2021/01/19 07:04:24;;;;;;;11.02;1.90;;;2.70;99.90;;;;;;4993539;28;20034;-58
2021/01/19 07:07:30;;;;;;;4.88;1.83;;;2.70;99.90;;;;;;4990187;28;20054;-59
2021/01/19 07:10:18;;;;;;;6.95;2.55;;;2.70;99.90;;;;;;4992045;28;20129;-58
2021/01/19 07:13:21;;;;;;;7.30;2.47;;;2.70;99.90;;;;;;4993480;28;20089;-58
2021/01/19 07:16:04;;;;;;;6.75;2.10;;;2.70;99.90;;;;;;4988515;28;20042;-58
2021/01/19 07:19:22;;;;;;;7.45;2.50;;;2.70;99.90;;;;;;4993498;28;20049;-57
2021/01/19 07:22:18;;;;;;;3.10;1.63;;;2.70;99.90;;;;;;4993489;28;20038;-59
2021/01/19 07:24:48;;;;;;;4.88;2.05;;;2.70;99.90;;;;;;5005715;28;20033;-58
2021/01/19 07:27:18;;;;;;;7.95;2.20;;;2.70;99.90;;;;;;5012749;28;20030;-56
2021/01/19 07:29:45;;;;;;;2.80;1.50;;;2.70;99.90;;;;;;5011517;28;20074;-59
2021/01/19 07:32:31;;;;;;;6.00;2.20;;;2.70;99.90;;;;;;5011526;28;20112;-56
2021/01/19 07:34:59;;;;;;;3.63;1.67;;;2.60;99.90;;;;;;4994160;28;20034;-58
2021/01/19 07:37:34;;;;;;;12.27;2.45;;;2.70;99.90;;;;;;4993046;28;20038;-58
2021/01/19 07:40:00;;;;;;;5.60;1.88;;;2.70;99.90;;;;;;4992673;28;20046;-58
2021/01/19 07:42:30;;;;;;;5.45;2.25;;;2.70;99.90;;;;;;4992680;28;20066;-56
2021/01/19 07:45:04;;;;;;;6.17;2.07;;;2.70;99.90;;;;;;4991891;28;20041;-57
2021/01/19 07:47:38;;;;;;;6.85;1.73;;;2.70;99.90;;;;;;4993189;28;20290;-55
2021/01/19 07:50:19;;;;;;;6.18;2.10;;;2.70;99.90;;;;;;4993010;28;20029;-58
2021/01/19 07:52:48;;;;;;;4.22;2.15;;;2.80;99.90;;;;;;4992716;28;20031;-59
2021/01/19 07:55:24;;;;;;;4.80;1.48;;;2.80;99.90;;;;;;5009187;28;20070;-59
2021/01/19 07:57:53;;;;;;;5.25;2.35;;;2.80;99.90;;;;;;5010824;28;20042;-59
2021/01/19 08:00:21;;;;;;;6.40;1.98;;;2.80;99.90;;;;;;5011163;28;20037;-56
2021/01/19 08:02:48;;;;;;;7.15;2.42;;;2.80;99.90;;;;;;4995428;28;20046;-59
2021/01/19 08:05:17;;;;;;;4.75;1.48;;;2.90;99.90;;;;;;4991392;28;20077;-58
2021/01/19 08:07:45;;;;;;;8.25;2.30;;;2.90;99.90;;;;;;4992661;28;20080;-60
2021/01/19 08:10:29;;;;;;;5.55;2.53;;;3.00;99.90;;;;;;4992481;28;20026;-60
2021/01/19 08:12:58;;;;;;;4.28;1.98;;;3.00;99.90;;;;;;4992478;28;20034;-59
2021/01/19 08:15:32;;;;;;;3.38;1.65;;;3.00;99.90;;;;;;4992618;28;20022;-59
2021/01/19 08:18:01;;;;;;;13.25;2.72;;;3.00;99.90;;;;;;4992771;28;20088;-58
2021/01/19 08:20:33;;;;;;;5.72;2.63;;;3.00;99.90;;;;;;4992044;28;20061;-57
2021/01/19 08:23:24;;;;;;;6.43;2.15;;;3.10;99.90;;;;;;4992104;28;20026;-59
2021/01/19 08:25:50;;;;;;;7.50;2.65;;;3.00;99.90;;;;;;4977560;28;20030;-59
2021/01/19 08:28:16;;;;;;;7.70;2.25;;;3.00;99.90;;;;;;4986127;28;20092;-59
2021/01/19 08:30:44;;;;;;;7.40;1.77;;;3.10;99.90;;;;;;4979405;28;20086;-59
2021/01/19 08:33:12;;;;;;;6.38;1.95;;;3.10;99.90;;;;;;4971346;28;20089;-59
2021/01/19 08:35:39;;;;;;;7.40;1.92;;;3.10;99.90;;;;;;4971457;28;20030;-57
2021/01/19 08:38:06;;;;;;;5.85;1.83;;;3.10;99.90;;;;;;4971521;28;20097;-58
2021/01/19 08:40:35;;;;;;;4.18;1.83;;;3.10;99.90;;;;;;4971664;28;20043;-58
2021/01/19 08:43:06;;;;;;;9.55;1.95;;;3.10;99.90;;;;;;4971959;28;20077;-58
2021/01/19 08:45:38;;;;;;;5.40;2.17;;;3.20;99.90;;;;;;4972197;28;20030;-56
2021/01/19 08:48:07;;;;;;;7.80;1.70;;;3.10;99.90;;;;;;4972422;28;20038;-58
2021/01/19 08:50:39;;;;;;;5.30;1.38;;;3.20;99.90;;;;;;4972879;28;20035;-58
2021/01/19 08:53:14;;;;;;;4.40;1.88;;;3.10;99.90;;;;;;4972701;28;20039;-58
2021/01/19 08:55:44;;;;;;;7.72;2.00;;;3.20;99.90;;;;;;5013309;28;20069;-57
2021/01/19 08:58:20;;;;;;;7.60;2.63;;;3.20;99.90;;;;;;5015332;28;20048;-59
2021/01/19 09:00:46;;;;;;;8.05;1.80;;;3.30;99.90;;;;;;5014587;28;20152;-60
2021/01/19 09:03:17;;;;;;;9.75;1.75;;;3.30;99.90;;;;;;5015296;28;20037;-59
2021/01/19 09:05:43;;;;;;;4.95;2.45;;;3.40;99.90;;;;;;5015670;28;20042;-60
2021/01/19 09:08:22;;;;;;;2.92;1.55;;;3.30;99.90;;;;;;5014331;28;20109;-59
2021/01/19 09:10:48;;;;;;;6.53;2.00;;;3.40;99.90;;;;;;5008387;28;20113;-59
2021/01/19 09:13:14;;;;;;;5.25;2.05;;;3.40;99.90;;;;;;4994577;28;20113;-58
2021/01/19 09:15:43;;;;;;;7.85;2.38;;;3.30;99.90;;;;;;4994664;28;20063;-57
2021/01/19 09:18:14;;;;;;;8.80;2.53;;;3.40;99.90;;;;;;4995624;28;20033;-58
2021/01/19 09:20:41;;;;;;;10.38;2.17;;;3.40;99.90;;;;;;4995289;28;20031;-57
2021/01/19 09:23:18;;;;;;;2.28;1.38;;;3.40;99.90;;;;;;4995711;28;20035;-59
2021/01/19 09:25:47;;;;;;;4.13;1.55;;;3.40;99.90;;;;;;4975957;28;20039;-60
2021/01/19 09:28:15;;;;;;;4.70;1.70;;;3.50;99.90;;;;;;4975763;28;20035;-58
2021/01/19 09:30:42;;;;;;;7.35;1.88;;;3.50;99.90;;;;;;4975745;28;20035;-56
2021/01/19 09:33:15;;;;;;;4.47;1.20;;;3.50;99.90;;;;;;4975667;28;20035;-58
2021/01/19 09:35:41;;;;;;;5.18;2.03;;;3.50;99.90;;;;;;4974878;28;20058;-58
2021/01/19 09:38:17;;;;;;;5.50;1.58;;;3.40;99.90;;;;;;4974381;28;20030;-59
2021/01/19 09:40:45;;;;;;;5.22;1.92;;;3.50;99.90;;;;;;4975453;28;20083;-57
2021/01/19 09:43:17;;;;;;;3.47;1.55;;;3.50;99.90;;;;;;4974605;28;20042;-59
2021/01/19 09:45:44;;;;;;;4.93;2.20;;;3.50;99.90;;;;;;4975508;28;20117;-57
2021/01/19 09:48:13;;;;;;;6.05;1.83;;;3.50;99.90;;;;;;4974526;28;20047;-59
2021/01/19 09:50:39;;;;;;;8.05;2.47;;;3.50;99.90;;;;;;4974356;28;20050;-59
2021/01/19 09:53:05;;;;;;;4.60;2.25;;;3.50;99.90;;;;;;4974181;28;20113;-59
2021/01/19 09:55:32;;;;;;;6.10;1.75;;;3.50;99.90;;;;;;4993916;28;20130;-59
2021/01/19 09:58:04;;;;;;;8.07;2.42;;;3.60;99.90;;;;;;4994675;28;20031;-58
2021/01/19 10:00:33;;;;;;;3.85;0.73;;;3.50;99.90;;;;;;4994968;28;20077;-59
2021/01/19 10:03:20;;;;;;;4.38;1.77;;;3.50;99.90;;;;;;4994573;28;20092;-58
2021/01/19 10:06:06;;;;;;;4.80;1.73;;;3.50;99.90;;;;;;4993349;28;20038;-58
2021/01/19 10:08:36;;;;;;;3.55;1.92;;;3.50;99.90;;;;;;4994945;28;20034;-60
2021/01/19 10:11:02;;;;;;;3.23;1.57;;;3.50;99.90;;;;;;4994668;28;20042;-59
2021/01/19 10:13:33;;;;;;;6.40;1.55;;;3.50;99.90;;;;;;4994793;28;20030;-57
2021/01/19 10:16:04;;;;;;;8.15;2.42;;;3.50;99.90;;;;;;4994361;28;20036;-59
2021/01/19 10:18:32;;;;;;;6.57;2.05;;;3.60;99.90;;;;;;4993758;28;20035;-59
2021/01/19 10:21:00;;;;;;;3.80;1.67;;;3.50;99.90;;;;;;4992380;28;20091;-59
2021/01/19 10:23:34;;;;;;;4.72;1.40;;;3.60;99.90;;;;;;4993635;28;20038;-59
2021/01/19 10:26:12;;;;;;;2.78;1.50;;;3.50;99.90;;;;;;4993286;28;20169;-57
2021/01/19 10:28:46;;;;;;;3.05;1.58;;;3.50;99.90;;;;;;4993604;28;20033;-58
2021/01/19 10:31:22;;;;;;;4.80;2.10;;;3.50;99.90;;;;;;4992236;28;20185;-59
2021/01/19 10:34:04;;;;;;;4.95;1.88;;;3.50;99.90;;;;;;4993954;28;20045;-59
2021/01/19 10:36:33;;;;;;;6.03;1.63;;;3.50;99.90;;;;;;4994149;28;20034;-57
2021/01/19 10:39:09;;;;;;;6.80;2.10;;;3.50;99.90;;;;;;4992448;28;20066;-59
2021/01/19 10:41:36;;;;;;;9.45;2.00;;;3.50;99.90;;;;;;4993917;28;20034;-58
2021/01/19 10:44:02;;;;;;;4.75;1.23;;;3.60;99.90;;;;;;4993862;28;20109;-59
2021/01/19 10:46:31;;;;;;;6.13;1.75;;;3.70;99.90;;;;;;4993929;28;20034;-60
2021/01/19 10:49:06;;;;;;;4.40;1.80;;;3.70;99.90;;;;;;4993883;28;20103;-59
2021/01/19 10:51:34;;;;;;;7.00;1.58;;;3.70;99.90;;;;;;4993955;28;20034;-58
2021/01/19 10:54:05;;;;;;;2.63;1.17;;;3.70;99.90;;;;;;4998964;28;20191;-60
2021/01/19 10:56:32;;;;;;;8.68;2.13;;;3.80;99.90;;;;;;5013454;28;20030;-57
2021/01/19 10:58:58;;;;;;;5.40;1.50;;;3.80;99.90;;;;;;5013380;28;20030;-59
2021/01/19 11:01:27;;;;;;;7.90;2.58;;;3.80;99.90;;;;;;5013246;28;20109;-61
2021/01/19 11:03:54;;;;;;;7.10;1.65;;;3.80;99.90;;;;;;5013497;28;20030;-62
2021/01/19 11:06:21;;;;;;;6.28;1.92;;;3.80;99.90;;;;;;5011406;28;20030;-60
2021/01/19 11:08:47;;;;;;;6.22;1.73;;;3.80;99.90;;;;;;4993395;28;20030;-59
2021/01/19 11:11:13;;;;;;;3.85;1.80;;;3.90;99.90;;;;;;4993191;28;20029;-59
2021/01/19 11:13:39;;;;;;;4.72;1.40;;;3.80;99.90;;;;;;4993439;28;20034;-59
2021/01/19 11:16:06;;;;;;;4.60;2.25;;;3.80;99.90;;;;;;4993028;28;20034;-59
2021/01/19 11:18:34;;;;;;;5.15;2.03;;;3.80;99.90;;;;;;4992695;28;20041;-60
2021/01/19 11:21:01;;;;;;;2.92;1.13;;;3.80;99.90;;;;;;5001439;28;20040;-59
2021/01/19 11:23:27;;;;;;;2.42;1.42;;;3.80;99.90;;;;;;5010679;28;20065;-59
2021/01/19 11:25:53;;;;;;;5.82;1.63;;;3.80;99.90;;;;;;4993093;28;20031;-60
2021/01/19 11:28:19;;;;;;;5.68;2.00;;;3.70;99.90;;;;;;4993129;28;20034;-58
2021/01/19 11:30:45;;;;;;;4.72;1.95;;;3.80;99.90;;;;;;4993674;28;20038;-61
2021/01/19 11:33:11;;;;;;;5.50;1.65;;;3.80;99.90;;;;;;4993002;28;20113;-59
2021/01/19 11:35:37;;;;;;;2.90;1.35;;;3.80;99.90;;;;;;4993075;28;20084;-59
2021/01/19 11:38:04;;;;;;;7.55;1.70;;;3.80;99.90;;;;;;4992709;28;20037;-59
2021/01/19 11:40:30;;;;;;;2.58;1.23;;;3.80;99.90;;;;;;4992656;28;20117;-61
2021/01/19 11:42:56;;;;;;;7.00;2.45;;;3.80;99.90;;;;;;4992927;28;20035;-58
2021/01/19 11:45:23;;;;;;;4.97;1.88;;;3.80;99.90;;;;;;4992673;28;20395;-59
2021/01/19 11:47:49;;;;;;;5.05;1.58;;;3.80;99.90;;;;;;4992800;28;20099;-56
2021/01/19 11:50:15;;;;;;;3.42;2.03;;;3.80;99.90;;;;;;4992593;28;20058;-60
2021/01/19 11:52:41;;;;;;;3.42;1.48;;;3.90;99.90;;;;;;4992943;28;20449;-58
2021/01/19 11:55:07;;;;;;;4.20;0.98;;;3.90;99.90;;;;;;5008351;28;20032;-57
2021/01/19 11:57:36;;;;;;;6.03;1.88;;;3.90;99.90;;;;;;5012513;28;20040;-58
2021/01/19 12:00:07;;;;;;;3.85;1.58;;;3.90;99.90;;;;;;5012179;28;20025;-59
2021/01/19 12:02:33;;;;;;;4.17;1.60;;;3.90;99.90;;;;;;5012182;28;20040;-57
2021/01/19 12:04:59;;;;;;;4.80;2.20;;;3.90;99.90;;;;;;5012197;28;20033;-58
2021/01/19 12:07:28;;;;;;;7.07;1.58;;;3.90;99.90;;;;;;5011915;28;20079;-58
2021/01/19 12:09:57;;;;;;;10.68;2.38;;;3.90;99.90;;;;;;5012187;28;20055;-58
2021/01/19 12:12:24;;;;;;;4.68;1.75;;;3.90;99.90;;;;;;5012149;28;20132;-59
2021/01/19 12:14:49;;;;;;;6.63;1.75;;;3.90;99.90;;;;;;5012047;28;20073;-59
2021/01/19 12:17:16;;;;;;;5.80;1.92;;;3.90;99.90;;;;;;5012158;28;20085;-60
2021/01/19 12:19:41;;;;;;;5.15;1.67;;;3.90;99.90;;;;;;5012123;28;20026;-61
2021/01/19 12:22:07;;;;;;;2.60;1.35;;;3.80;99.90;;;;;;5010782;28;20026;-59
2021/01/19 12:24:35;;;;;;;4.50;1.77;;;3.80;99.90;;;;;;5000757;28;20091;-58
2021/01/19 12:27:02;;;;;;;4.40;1.70;;;3.80;99.90;;;;;;4992288;28;20026;-58
2021/01/19 12:29:28;;;;;;;7.30;2.75;;;3.80;99.90;;;;;;4993958;28;20030;-59
2021/01/19 12:32:04;;;;;;;5.30;1.73;;;3.90;99.90;;;;;;4996395;28;20030;-60
2021/01/19 12:34:30;;;;;;;6.15;2.17;;;3.90;99.90;;;;;;4996294;28;20040;-62
2021/01/19 12:36:56;;;;;;;4.03;1.60;;;3.90;99.90;;;;;;4996593;28;20034;-59
2021/01/19 12:39:22;;;;;;;8.00;2.15;;;3.90;99.90;;;;;;4994908;28;20046;-59
2021/01/19 12:41:48;;;;;;;4.82;1.77;;;3.90;99.90;;;;;;4996436;28;20037;-62
2021/01/19 12:44:15;;;;;;;4.00;1.60;;;4.00;99.90;;;;;;4995158;28;20050;-61
2021/01/19 12:46:40;;;;;;;5.07;1.75;;;4.00;99.90;;;;;;4996389;28;20046;-59
2021/01/19 12:49:08;;;;;;;5.63;2.10;;;4.00;99.90;;;;;;4996016;28;20030;-60
2021/01/19 12:51:33;;;;;;;3.10;2.15;;;4.00;99.90;;;;;;4996125;28;20042;-58
2021/01/19 12:53:59;;;;;;;6.07;1.75;;;4.10;99.90;;;;;;5002591;28;20029;-59
2021/01/19 12:56:25;;;;;;;6.30;2.13;;;4.10;99.90;;;;;;5015278;28;20096;-59
2021/01/19 12:58:52;;;;;;;8.60;2.05;;;4.20;99.90;;;;;;5015109;28;20029;-58
2021/01/19 13:01:18;;;;;;;6.55;2.03;;;4.20;99.90;;;;;;5015472;28;20026;-59
2021/01/19 13:03:44;;;;;;;4.90;1.42;;;4.20;99.90;;;;;;5015323;28;20034;-59
2021/01/19 13:06:10;;;;;;;4.60;1.85;;;4.20;99.90;;;;;;5015111;28;20084;-58
2021/01/19 13:08:38;;;;;;;6.80;2.35;;;4.30;99.90;;;;;;5015116;28;20086;-59
2021/01/19 13:11:05;;;;;;;7.50;2.05;;;4.30;99.90;;;;;;5011778;28;20104;-59
2021/01/19 13:13:31;;;;;;;5.78;1.73;;;4.30;99.90;;;;;;4994209;28;20030;-59
2021/01/19 13:15:57;;;;;;;6.82;3.22;;;4.40;99.90;;;;;;4995444;28;20031;-58